sensor_id;sensor_type;location;lat;lon;timestamp;temperature;humidity
18281;DHT22;9266;51.132;17.062;2023-03-14T00:00:51;10.20;1.00
18281;DHT22;9266;51.132;17.062;2023-03-14T00:03:18;10.20;1.00
18281;DHT22;9266;51.132;17.062;2023-03-14T00:05:47;10.10;1.00
18281;DHT22;9266;51.132;17.062;2023-03-14T00:08:14;10.30;1.00
18281;DHT22;9266;51.132;17.062;2023-03-14T00:10:41;10.30;1.00
18281;DHT22;9266;51.132;17.062;2023-03-14T00:13:08;10.20;1.00
18281;DHT22;9266;51.132;17.062;2023-03-14T00:15:36;10.30;1.00
18281;DHT22;9266;51.132;17.062;2023-03-14T00:18:03;10.40;1.00
18281;DHT22;9266;51.132;17.062;2023-03-14T00:20:30;10.50;1.00
18281;DHT22;9266;51.132;17.062;2023-03-14T00:22:57;10.50;1.00
18281;DHT22;9266;51.132;17.062;2023-03-14T00:25:25;10.30;1.00
18281;DHT22;9266;51.132;17.062;2023-03-14T00:27:52;10.20;1.00
18281;DHT22;9266;51.132;17.062;2023-03-14T00:30:19;10.20;1.00
18281;DHT22;9266;51.132;17.062;2023-03-14T00:32:48;10.20;1.00
18281;DHT22;9266;51.132;17.062;2023-03-14T00:35:15;10.20;1.00
18281;DHT22;9266;51.132;17.062;2023-03-14T00:37:42;10.20;1.00
18281;DHT22;9266;51.132;17.062;2023-03-14T00:40:10;10.20;1.00
18281;DHT22;9266;51.132;17.062;2023-03-14T00:42:37;10.30;1.00
18281;DHT22;9266;51.132;17.062;2023-03-14T00:45:05;10.40;1.00
18281;DHT22;9266;51.132;17.062;2023-03-14T00:47:34;10.50;1.00
18281;DHT22;9266;51.132;17.062;2023-03-14T00:50:03;10.50;1.00
18281;DHT22;9266;51.132;17.062;2023-03-14T00:52:30;10.50;1.00
18281;DHT22;9266;51.132;17.062;2023-03-14T00:54:57;10.50;1.00
18281;DHT22;9266;51.132;17.062;2023-03-14T00:57:24;10.30;1.00
18281;DHT22;9266;51.132;17.062;2023-03-14T00:59:51;10.20;1.00
18281;DHT22;9266;51.132;17.062;2023-03-14T01:02:18;10.10;1.00
18281;DHT22;9266;51.132;17.062;2023-03-14T01:04:47;10.10;1.00
18281;DHT22;9266;51.132;17.062;2023-03-14T01:07:16;10.10;1.00
18281;DHT22;9266;51.132;17.062;2023-03-14T01:09:43;10.10;1.00
18281;DHT22;9266;51.132;17.062;2023-03-14T01:12:10;10.10;1.00
18281;DHT22;9266;51.132;17.062;2023-03-14T01:14:37;12.20;1.00
18281;DHT22;9266;51.132;17.062;2023-03-14T01:17:04;10.00;1.00
18281;DHT22;9266;51.132;17.062;2023-03-14T01:19:31;10.10;1.00
18281;DHT22;9266;51.132;17.062;2023-03-14T01:21:58;10.20;1.00
18281;DHT22;9266;51.132;17.062;2023-03-14T01:24:26;10.20;1.00
18281;DHT22;9266;51.132;17.062;2023-03-14T01:26:53;10.20;1.00
18281;DHT22;9266;51.132;17.062;2023-03-14T01:29:20;10.30;1.00
18281;DHT22;9266;51.132;17.062;2023-03-14T01:31:47;10.40;1.00
18281;DHT22;9266;51.132;17.062;2023-03-14T01:34:14;10.60;1.00
18281;DHT22;9266;51.132;17.062;2023-03-14T01:36:41;10.80;1.00
18281;DHT22;9266;51.132;17.062;2023-03-14T01:39:08;10.80;1.00
18281;DHT22;9266;51.132;17.062;2023-03-14T01:41:37;10.80;1.00
18281;DHT22;9266;51.132;17.062;2023-03-14T01:44:04;10.70;1.00
18281;DHT22;9266;51.132;17.062;2023-03-14T01:46:37;10.60;1.00
18281;DHT22;9266;51.132;17.062;2023-03-14T01:49:21;10.50;1.00
18281;DHT22;9266;51.132;17.062;2023-03-14T01:51:53;10.40;1.00
18281;DHT22;9266;51.132;17.062;2023-03-14T01:54:24;10.30;1.00
18281;DHT22;9266;51.132;17.062;2023-03-14T01:56:57;10.30;1.00
18281;DHT22;9266;51.132;17.062;2023-03-14T01:59:25;10.20;1.00
18281;DHT22;9266;51.132;17.062;2023-03-14T02:01:54;10.20;21.40
18281;DHT22;9266;51.132;17.062;2023-03-14T02:04:23;10.20;1.00
18281;DHT22;9266;51.132;17.062;2023-03-14T02:06:53;10.10;1.00
18281;DHT22;9266;51.132;17.062;2023-03-14T02:09:21;10.00;1.00
18281;DHT22;9266;51.132;17.062;2023-03-14T02:11:49;9.80;1.00
18281;DHT22;9266;51.132;17.062;2023-03-14T02:14:30;9.90;1.00
18281;DHT22;9266;51.132;17.062;2023-03-14T02:16:57;9.80;99.90
18281;DHT22;9266;51.132;17.062;2023-03-14T02:19:42;9.80;99.90
18281;DHT22;9266;51.132;17.062;2023-03-14T02:22:13;9.70;74.30
18281;DHT22;9266;51.132;17.062;2023-03-14T02:24:45;9.60;1.00
18281;DHT22;9266;51.132;17.062;2023-03-14T02:27:16;9.60;94.30
18281;DHT22;9266;51.132;17.062;2023-03-14T02:29:49;9.60;1.00
18281;DHT22;9266;51.132;17.062;2023-03-14T02:32:18;9.60;1.00
18281;DHT22;9266;51.132;17.062;2023-03-14T02:34:48;9.60;1.00
18281;DHT22;9266;51.132;17.062;2023-03-14T02:37:18;9.70;1.00
18281;DHT22;9266;51.132;17.062;2023-03-14T02:39:46;9.80;1.00
18281;DHT22;9266;51.132;17.062;2023-03-14T02:42:16;9.90;1.00
18281;DHT22;9266;51.132;17.062;2023-03-14T02:44:55;10.00;1.00
18281;DHT22;9266;51.132;17.062;2023-03-14T02:47:28;10.00;1.00
18281;DHT22;9266;51.132;17.062;2023-03-14T02:50:00;10.20;1.00
18281;DHT22;9266;51.132;17.062;2023-03-14T02:52:28;10.40;1.00
18281;DHT22;9266;51.132;17.062;2023-03-14T02:54:55;10.50;1.00
18281;DHT22;9266;51.132;17.062;2023-03-14T02:57:23;10.60;1.00
18281;DHT22;9266;51.132;17.062;2023-03-14T02:59:50;10.70;1.00
18281;DHT22;9266;51.132;17.062;2023-03-14T03:02:18;10.80;1.00
18281;DHT22;9266;51.132;17.062;2023-03-14T03:04:45;10.80;1.00
18281;DHT22;9266;51.132;17.062;2023-03-14T03:07:12;10.80;1.00
18281;DHT22;9266;51.132;17.062;2023-03-14T03:09:39;10.80;1.00
18281;DHT22;9266;51.132;17.062;2023-03-14T03:12:06;10.70;1.00
18281;DHT22;9266;51.132;17.062;2023-03-14T03:14:34;10.70;1.00
18281;DHT22;9266;51.132;17.062;2023-03-14T03:17:03;10.70;1.00
18281;DHT22;9266;51.132;17.062;2023-03-14T03:19:30;10.70;1.00
18281;DHT22;9266;51.132;17.062;2023-03-14T03:21:58;10.80;1.00
18281;DHT22;9266;51.132;17.062;2023-03-14T03:24:25;11.00;1.00
18281;DHT22;9266;51.132;17.062;2023-03-14T03:26:53;11.10;1.00
18281;DHT22;9266;51.132;17.062;2023-03-14T03:29:20;11.10;1.00
18281;DHT22;9266;51.132;17.062;2023-03-14T03:31:48;11.10;1.00
18281;DHT22;9266;51.132;17.062;2023-03-14T03:34:15;11.10;1.00
18281;DHT22;9266;51.132;17.062;2023-03-14T03:36:42;11.10;1.00
18281;DHT22;9266;51.132;17.062;2023-03-14T03:39:09;11.10;1.00
18281;DHT22;9266;51.132;17.062;2023-03-14T03:41:36;11.00;1.00
18281;DHT22;9266;51.132;17.062;2023-03-14T03:44:03;11.00;1.00
18281;DHT22;9266;51.132;17.062;2023-03-14T03:46:31;11.00;1.00
18281;DHT22;9266;51.132;17.062;2023-03-14T03:49:00;10.90;1.00
18281;DHT22;9266;51.132;17.062;2023-03-14T03:51:27;10.80;1.00
18281;DHT22;9266;51.132;17.062;2023-03-14T03:53:55;10.80;1.00
18281;DHT22;9266;51.132;17.062;2023-03-14T03:56:22;10.80;1.00
18281;DHT22;9266;51.132;17.062;2023-03-14T03:58:49;10.80;1.00
18281;DHT22;9266;51.132;17.062;2023-03-14T04:01:16;10.80;1.00
18281;DHT22;9266;51.132;17.062;2023-03-14T04:03:43;10.80;1.00
18281;DHT22;9266;51.132;17.062;2023-03-14T04:06:13;10.70;1.00
18281;DHT22;9266;51.132;17.062;2023-03-14T04:08:40;10.80;1.00
18281;DHT22;9266;51.132;17.062;2023-03-14T04:11:09;10.80;1.00
18281;DHT22;9266;51.132;17.062;2023-03-14T04:13:36;10.80;1.00
18281;DHT22;9266;51.132;17.062;2023-03-14T04:16:03;10.80;1.00
18281;DHT22;9266;51.132;17.062;2023-03-14T04:18:30;10.90;1.00
18281;DHT22;9266;51.132;17.062;2023-03-14T04:20:58;11.00;1.00
18281;DHT22;9266;51.132;17.062;2023-03-14T04:23:26;11.00;1.00
18281;DHT22;9266;51.132;17.062;2023-03-14T04:25:53;11.00;1.00
18281;DHT22;9266;51.132;17.062;2023-03-14T04:28:20;11.10;1.00
18281;DHT22;9266;51.132;17.062;2023-03-14T04:30:47;11.10;1.00
18281;DHT22;9266;51.132;17.062;2023-03-14T04:33:14;11.10;1.00
18281;DHT22;9266;51.132;17.062;2023-03-14T04:35:43;11.10;1.00
18281;DHT22;9266;51.132;17.062;2023-03-14T04:38:10;11.10;1.00
18281;DHT22;9266;51.132;17.062;2023-03-14T04:40:38;11.00;1.00
18281;DHT22;9266;51.132;17.062;2023-03-14T04:43:06;11.10;1.00
18281;DHT22;9266;51.132;17.062;2023-03-14T04:45:33;11.10;1.00
18281;DHT22;9266;51.132;17.062;2023-03-14T04:48:00;11.10;1.00
18281;DHT22;9266;51.132;17.062;2023-03-14T04:50:27;11.20;1.00
18281;DHT22;9266;51.132;17.062;2023-03-14T04:52:55;11.20;1.00
18281;DHT22;9266;51.132;17.062;2023-03-14T04:55:22;11.10;1.00
18281;DHT22;9266;51.132;17.062;2023-03-14T04:57:50;11.10;1.00
18281;DHT22;9266;51.132;17.062;2023-03-14T05:00:17;9.20;1.00
18281;DHT22;9266;51.132;17.062;2023-03-14T05:02:45;11.30;1.00
18281;DHT22;9266;51.132;17.062;2023-03-14T05:05:12;11.20;1.00
18281;DHT22;9266;51.132;17.062;2023-03-14T05:07:39;11.20;1.00
18281;DHT22;9266;51.132;17.062;2023-03-14T05:10:06;11.20;1.00
18281;DHT22;9266;51.132;17.062;2023-03-14T05:12:34;11.20;1.00
18281;DHT22;9266;51.132;17.062;2023-03-14T05:15:02;11.20;1.00
18281;DHT22;9266;51.132;17.062;2023-03-14T05:17:32;11.10;1.00
18281;DHT22;9266;51.132;17.062;2023-03-14T05:19:59;11.00;1.00
18281;DHT22;9266;51.132;17.062;2023-03-14T05:22:26;10.90;1.00
18281;DHT22;9266;51.132;17.062;2023-03-14T05:24:53;10.70;1.00
18281;DHT22;9266;51.132;17.062;2023-03-14T05:27:22;10.60;1.00
18281;DHT22;9266;51.132;17.062;2023-03-14T05:29:49;10.50;1.00
18281;DHT22;9266;51.132;17.062;2023-03-14T05:32:17;10.40;1.00
18281;DHT22;9266;51.132;17.062;2023-03-14T05:34:44;10.40;1.00
18281;DHT22;9266;51.132;17.062;2023-03-14T05:37:11;10.30;1.00
18281;DHT22;9266;51.132;17.062;2023-03-14T05:39:38;10.20;1.00
18281;DHT22;9266;51.132;17.062;2023-03-14T05:42:05;10.00;1.00
18281;DHT22;9266;51.132;17.062;2023-03-14T05:44:32;9.20;1.00
18281;DHT22;9266;51.132;17.062;2023-03-14T05:46:59;9.90;1.00
18281;DHT22;9266;51.132;17.062;2023-03-14T05:49:28;9.80;1.00
18281;DHT22;9266;51.132;17.062;2023-03-14T05:51:55;9.80;1.00
18281;DHT22;9266;51.132;17.062;2023-03-14T05:54:22;9.80;1.00
18281;DHT22;9266;51.132;17.062;2023-03-14T05:56:49;9.80;1.00
18281;DHT22;9266;51.132;17.062;2023-03-14T05:59:16;9.90;1.00
18281;DHT22;9266;51.132;17.062;2023-03-14T06:01:43;9.90;1.00
18281;DHT22;9266;51.132;17.062;2023-03-14T06:04:10;9.90;1.00
18281;DHT22;9266;51.132;17.062;2023-03-14T06:06:38;9.90;1.00
18281;DHT22;9266;51.132;17.062;2023-03-14T06:09:05;9.80;1.00
18281;DHT22;9266;51.132;17.062;2023-03-14T06:11:32;9.80;1.00
18281;DHT22;9266;51.132;17.062;2023-03-14T06:13:59;9.80;1.00
18281;DHT22;9266;51.132;17.062;2023-03-14T06:16:27;9.80;1.00
18281;DHT22;9266;51.132;17.062;2023-03-14T06:18:54;9.90;1.00
18281;DHT22;9266;51.132;17.062;2023-03-14T06:21:21;9.90;1.00
18281;DHT22;9266;51.132;17.062;2023-03-14T06:23:49;10.00;1.00
18281;DHT22;9266;51.132;17.062;2023-03-14T06:26:16;10.10;1.00
18281;DHT22;9266;51.132;17.062;2023-03-14T06:28:43;10.30;1.00
18281;DHT22;9266;51.132;17.062;2023-03-14T06:31:11;10.40;1.00
18281;DHT22;9266;51.132;17.062;2023-03-14T06:33:38;10.70;1.00
18281;DHT22;9266;51.132;17.062;2023-03-14T06:36:06;11.00;1.00
18281;DHT22;9266;51.132;17.062;2023-03-14T06:38:33;11.60;99.90
18281;DHT22;9266;51.132;17.062;2023-03-14T06:41:05;11.90;1.00
18281;DHT22;9266;51.132;17.062;2023-03-14T06:43:32;11.70;1.00
18281;DHT22;9266;51.132;17.062;2023-03-14T06:45:59;11.60;1.00
18281;DHT22;9266;51.132;17.062;2023-03-14T06:48:26;11.50;1.00
18281;DHT22;9266;51.132;17.062;2023-03-14T06:50:54;11.50;1.00
18281;DHT22;9266;51.132;17.062;2023-03-14T06:53:21;11.50;1.00
18281;DHT22;9266;51.132;17.062;2023-03-14T06:55:48;11.50;1.00
18281;DHT22;9266;51.132;17.062;2023-03-14T06:58:17;11.60;1.00
18281;DHT22;9266;51.132;17.062;2023-03-14T07:00:44;11.70;1.00
18281;DHT22;9266;51.132;17.062;2023-03-14T07:03:13;11.80;1.00
18281;DHT22;9266;51.132;17.062;2023-03-14T07:05:40;11.70;1.00
18281;DHT22;9266;51.132;17.062;2023-03-14T07:08:08;11.70;1.00
18281;DHT22;9266;51.132;17.062;2023-03-14T07:10:35;11.70;1.00
18281;DHT22;9266;51.132;17.062;2023-03-14T07:13:02;11.80;1.00
18281;DHT22;9266;51.132;17.062;2023-03-14T07:15:31;11.80;1.00
18281;DHT22;9266;51.132;17.062;2023-03-14T07:17:58;11.80;1.00
18281;DHT22;9266;51.132;17.062;2023-03-14T07:20:26;11.80;1.00
18281;DHT22;9266;51.132;17.062;2023-03-14T07:22:54;11.70;1.00
18281;DHT22;9266;51.132;17.062;2023-03-14T07:25:21;11.60;1.00
18281;DHT22;9266;51.132;17.062;2023-03-14T07:27:48;11.60;1.00
18281;DHT22;9266;51.132;17.062;2023-03-14T07:30:15;11.60;1.00
18281;DHT22;9266;51.132;17.062;2023-03-14T07:32:44;11.60;1.00
18281;DHT22;9266;51.132;17.062;2023-03-14T07:35:11;11.60;1.00
18281;DHT22;9266;51.132;17.062;2023-03-14T07:37:38;11.50;1.00
18281;DHT22;9266;51.132;17.062;2023-03-14T07:40:06;11.50;1.00
18281;DHT22;9266;51.132;17.062;2023-03-14T07:42:33;11.40;1.00
18281;DHT22;9266;51.132;17.062;2023-03-14T07:45:00;11.40;1.00
18281;DHT22;9266;51.132;17.062;2023-03-14T07:47:28;11.40;1.00
18281;DHT22;9266;51.132;17.062;2023-03-14T07:49:57;11.40;1.00
18281;DHT22;9266;51.132;17.062;2023-03-14T07:52:24;11.30;1.00
18281;DHT22;9266;51.132;17.062;2023-03-14T07:54:51;11.30;1.00
18281;DHT22;9266;51.132;17.062;2023-03-14T07:57:18;11.30;1.00
18281;DHT22;9266;51.132;17.062;2023-03-14T07:59:45;11.20;1.00
18281;DHT22;9266;51.132;17.062;2023-03-14T08:02:12;11.20;1.00
18281;DHT22;9266;51.132;17.062;2023-03-14T08:04:39;11.20;1.00
18281;DHT22;9266;51.132;17.062;2023-03-14T08:07:08;11.20;1.00
18281;DHT22;9266;51.132;17.062;2023-03-14T08:09:35;11.10;1.00
18281;DHT22;9266;51.132;17.062;2023-03-14T08:12:02;11.10;1.00
18281;DHT22;9266;51.132;17.062;2023-03-14T08:14:29;11.00;1.00
18281;DHT22;9266;51.132;17.062;2023-03-14T08:16:56;11.00;1.00
18281;DHT22;9266;51.132;17.062;2023-03-14T08:19:23;11.00;1.00
18281;DHT22;9266;51.132;17.062;2023-03-14T08:21:51;11.00;1.00
18281;DHT22;9266;51.132;17.062;2023-03-14T08:24:19;11.00;1.00
18281;DHT22;9266;51.132;17.062;2023-03-14T08:26:46;11.00;1.00
18281;DHT22;9266;51.132;17.062;2023-03-14T08:29:13;11.00;1.00
18281;DHT22;9266;51.132;17.062;2023-03-14T08:31:40;11.00;1.00
18281;DHT22;9266;51.132;17.062;2023-03-14T08:34:07;11.00;1.00
18281;DHT22;9266;51.132;17.062;2023-03-14T08:36:34;10.90;1.00
18281;DHT22;9266;51.132;17.062;2023-03-14T08:39:01;11.00;1.00
18281;DHT22;9266;51.132;17.062;2023-03-14T08:41:30;10.90;1.00
18281;DHT22;9266;51.132;17.062;2023-03-14T08:43:58;10.80;1.00
18281;DHT22;9266;51.132;17.062;2023-03-14T08:46:25;10.70;1.00
18281;DHT22;9266;51.132;17.062;2023-03-14T08:48:52;10.60;1.00
18281;DHT22;9266;51.132;17.062;2023-03-14T08:51:19;10.50;1.00
18281;DHT22;9266;51.132;17.062;2023-03-14T08:53:46;10.40;1.00
18281;DHT22;9266;51.132;17.062;2023-03-14T08:56:13;10.40;1.00
18281;DHT22;9266;51.132;17.062;2023-03-14T08:58:42;10.30;1.00
18281;DHT22;9266;51.132;17.062;2023-03-14T09:01:10;10.40;23.00
18281;DHT22;9266;51.132;17.062;2023-03-14T09:03:38;10.40;54.60
18281;DHT22;9266;51.132;17.062;2023-03-14T09:06:07;10.60;1.00
18281;DHT22;9266;51.132;17.062;2023-03-14T09:08:34;10.70;1.00
18281;DHT22;9266;51.132;17.062;2023-03-14T09:11:02;10.90;1.00
18281;DHT22;9266;51.132;17.062;2023-03-14T09:13:29;11.00;1.00
18281;DHT22;9266;51.132;17.062;2023-03-14T09:15:57;11.10;1.00
18281;DHT22;9266;51.132;17.062;2023-03-14T09:18:24;11.00;1.00
18281;DHT22;9266;51.132;17.062;2023-03-14T09:20:51;11.10;1.00
18281;DHT22;9266;51.132;17.062;2023-03-14T09:23:18;11.10;1.00
18281;DHT22;9266;51.132;17.062;2023-03-14T09:25:45;11.10;1.00
18281;DHT22;9266;51.132;17.062;2023-03-14T09:28:12;11.10;1.00
18281;DHT22;9266;51.132;17.062;2023-03-14T09:30:42;11.20;1.00
18281;DHT22;9266;51.132;17.062;2023-03-14T09:33:11;11.30;1.00
18281;DHT22;9266;51.132;17.062;2023-03-14T09:35:38;11.40;1.00
18281;DHT22;9266;51.132;17.062;2023-03-14T09:38:05;11.40;1.00
18281;DHT22;9266;51.132;17.062;2023-03-14T09:40:35;11.40;1.00
18281;DHT22;9266;51.132;17.062;2023-03-14T09:43:02;11.30;1.00
18281;DHT22;9266;51.132;17.062;2023-03-14T09:45:33;11.40;1.00
18281;DHT22;9266;51.132;17.062;2023-03-14T09:48:02;11.50;1.00
18281;DHT22;9266;51.132;17.062;2023-03-14T09:50:37;11.50;1.00
18281;DHT22;9266;51.132;17.062;2023-03-14T09:53:09;11.50;1.00
18281;DHT22;9266;51.132;17.062;2023-03-14T09:55:38;11.50;1.00
18281;DHT22;9266;51.132;17.062;2023-03-14T09:58:11;11.40;1.00
18281;DHT22;9266;51.132;17.062;2023-03-14T10:00:38;11.40;1.00
18281;DHT22;9266;51.132;17.062;2023-03-14T10:03:22;11.40;1.00
18281;DHT22;9266;51.132;17.062;2023-03-14T10:05:50;11.40;1.00
18281;DHT22;9266;51.132;17.062;2023-03-14T10:08:17;11.40;1.00
18281;DHT22;9266;51.132;17.062;2023-03-14T10:10:44;11.40;1.00
18281;DHT22;9266;51.132;17.062;2023-03-14T10:13:15;11.40;1.00
18281;DHT22;9266;51.132;17.062;2023-03-14T10:15:47;11.50;1.00
18281;DHT22;9266;51.132;17.062;2023-03-14T10:18:15;11.60;1.00
18281;DHT22;9266;51.132;17.062;2023-03-14T10:20:43;11.80;1.00
18281;DHT22;9266;51.132;17.062;2023-03-14T10:23:31;12.00;1.00
18281;DHT22;9266;51.132;17.062;2023-03-14T10:26:07;12.10;1.00
18281;DHT22;9266;51.132;17.062;2023-03-14T10:28:39;12.20;1.00
18281;DHT22;9266;51.132;17.062;2023-03-14T10:31:07;12.40;1.00
18281;DHT22;9266;51.132;17.062;2023-03-14T10:33:35;12.70;1.00
18281;DHT22;9266;51.132;17.062;2023-03-14T10:36:04;12.90;18.00
18281;DHT22;9266;51.132;17.062;2023-03-14T10:38:35;13.10;1.00
18281;DHT22;9266;51.132;17.062;2023-03-14T10:41:17;13.20;1.00
18281;DHT22;9266;51.132;17.062;2023-03-14T10:43:50;13.20;1.00
18281;DHT22;9266;51.132;17.062;2023-03-14T10:46:19;13.20;1.00
18281;DHT22;9266;51.132;17.062;2023-03-14T10:48:47;13.30;1.00
18281;DHT22;9266;51.132;17.062;2023-03-14T10:51:19;13.20;1.00
18281;DHT22;9266;51.132;17.062;2023-03-14T10:53:57;13.40;1.00
18281;DHT22;9266;51.132;17.062;2023-03-14T10:56:26;13.40;1.00
18281;DHT22;9266;51.132;17.062;2023-03-14T10:58:56;13.50;1.00
18281;DHT22;9266;51.132;17.062;2023-03-14T11:01:31;13.60;1.00
18281;DHT22;9266;51.132;17.062;2023-03-14T11:04:12;13.70;1.00
18281;DHT22;9266;51.132;17.062;2023-03-14T11:06:44;13.70;1.00
18281;DHT22;9266;51.132;17.062;2023-03-14T11:09:18;11.40;1.00
18281;DHT22;9266;51.132;17.062;2023-03-14T11:11:49;14.00;1.00
18281;DHT22;9266;51.132;17.062;2023-03-14T11:14:23;14.40;1.00
18281;DHT22;9266;51.132;17.062;2023-03-14T11:17:00;14.50;1.00
18281;DHT22;9266;51.132;17.062;2023-03-14T11:19:46;14.50;1.00
18281;DHT22;9266;51.132;17.062;2023-03-14T11:22:32;14.40;1.00
18281;DHT22;9266;51.132;17.062;2023-03-14T11:25:14;14.50;1.00
18281;DHT22;9266;51.132;17.062;2023-03-14T11:27:44;14.40;1.00
18281;DHT22;9266;51.132;17.062;2023-03-14T11:30:18;14.40;1.00
18281;DHT22;9266;51.132;17.062;2023-03-14T11:32:48;14.40;1.00
18281;DHT22;9266;51.132;17.062;2023-03-14T11:35:22;14.40;1.00
18281;DHT22;9266;51.132;17.062;2023-03-14T11:37:54;14.50;1.00
18281;DHT22;9266;51.132;17.062;2023-03-14T11:40:26;14.70;1.00
18281;DHT22;9266;51.132;17.062;2023-03-14T11:42:59;14.60;1.00
18281;DHT22;9266;51.132;17.062;2023-03-14T11:45:32;14.70;1.00
18281;DHT22;9266;51.132;17.062;2023-03-14T11:48:15;14.50;1.00
18281;DHT22;9266;51.132;17.062;2023-03-14T11:50:44;14.50;1.00
18281;DHT22;9266;51.132;17.062;2023-03-14T11:53:17;14.60;1.00
18281;DHT22;9266;51.132;17.062;2023-03-14T11:55:48;14.50;1.00
18281;DHT22;9266;51.132;17.062;2023-03-14T11:58:19;14.50;1.00
18281;DHT22;9266;51.132;17.062;2023-03-14T12:00:48;14.40;1.00
18281;DHT22;9266;51.132;17.062;2023-03-14T12:03:21;14.60;1.00
18281;DHT22;9266;51.132;17.062;2023-03-14T12:05:57;14.90;1.00
18281;DHT22;9266;51.132;17.062;2023-03-14T12:08:46;15.00;1.00
18281;DHT22;9266;51.132;17.062;2023-03-14T12:11:31;14.80;1.00
18281;DHT22;9266;51.132;17.062;2023-03-14T12:14:00;14.70;1.00
18281;DHT22;9266;51.132;17.062;2023-03-14T12:16:33;14.60;1.00
18281;DHT22;9266;51.132;17.062;2023-03-14T12:22:13;14.40;1.00
18281;DHT22;9266;51.132;17.062;2023-03-14T12:24:45;14.30;1.00
18281;DHT22;9266;51.132;17.062;2023-03-14T12:27:40;14.20;1.00
18281;DHT22;9266;51.132;17.062;2023-03-14T12:30:24;14.20;1.00
18281;DHT22;9266;51.132;17.062;2023-03-14T12:36:18;14.10;1.00
18281;DHT22;9266;51.132;17.062;2023-03-14T12:39:05;14.80;1.00
18281;DHT22;9266;51.132;17.062;2023-03-14T12:41:40;14.10;1.00
18281;DHT22;9266;51.132;17.062;2023-03-14T12:44:40;13.90;1.00
18281;DHT22;9266;51.132;17.062;2023-03-14T12:47:42;14.00;1.00
18281;DHT22;9266;51.132;17.062;2023-03-14T12:50:16;14.00;1.00
18281;DHT22;9266;51.132;17.062;2023-03-14T12:55:43;14.00;1.00
18281;DHT22;9266;51.132;17.062;2023-03-14T12:58:17;15.40;1.00
18281;DHT22;9266;51.132;17.062;2023-03-14T13:00:55;14.00;1.00
18281;DHT22;9266;51.132;17.062;2023-03-14T13:03:25;14.30;1.00
18281;DHT22;9266;51.132;17.062;2023-03-14T13:05:56;14.30;1.00
18281;DHT22;9266;51.132;17.062;2023-03-14T13:08:38;14.20;1.00
18281;DHT22;9266;51.132;17.062;2023-03-14T13:11:10;14.20;1.00
18281;DHT22;9266;51.132;17.062;2023-03-14T13:13:44;13.90;1.00
18281;DHT22;9266;51.132;17.062;2023-03-14T13:16:16;13.80;1.00
18281;DHT22;9266;51.132;17.062;2023-03-14T13:18:44;13.70;1.00
18281;DHT22;9266;51.132;17.062;2023-03-14T13:21:15;13.60;1.00
18281;DHT22;9266;51.132;17.062;2023-03-14T13:23:55;13.40;1.00
18281;DHT22;9266;51.132;17.062;2023-03-14T13:26:24;13.50;1.00
18281;DHT22;9266;51.132;17.062;2023-03-14T13:28:53;13.40;1.00
18281;DHT22;9266;51.132;17.062;2023-03-14T13:31:24;13.50;1.00
18281;DHT22;9266;51.132;17.062;2023-03-14T13:33:59;13.40;1.00
18281;DHT22;9266;51.132;17.062;2023-03-14T13:36:27;13.40;1.00
18281;DHT22;9266;51.132;17.062;2023-03-14T13:38:59;13.40;1.00
18281;DHT22;9266;51.132;17.062;2023-03-14T13:41:27;13.50;1.00
18281;DHT22;9266;51.132;17.062;2023-03-14T13:44:00;13.50;1.00
18281;DHT22;9266;51.132;17.062;2023-03-14T13:46:34;13.50;1.00
18281;DHT22;9266;51.132;17.062;2023-03-14T13:49:03;13.50;1.00
18281;DHT22;9266;51.132;17.062;2023-03-14T13:51:31;13.50;1.00
18281;DHT22;9266;51.132;17.062;2023-03-14T13:54:00;13.40;1.00
18281;DHT22;9266;51.132;17.062;2023-03-14T13:56:30;13.40;1.00
18281;DHT22;9266;51.132;17.062;2023-03-14T13:58:58;13.40;1.00
18281;DHT22;9266;51.132;17.062;2023-03-14T14:01:26;13.30;1.00
18281;DHT22;9266;51.132;17.062;2023-03-14T14:03:58;13.30;1.00
18281;DHT22;9266;51.132;17.062;2023-03-14T14:06:31;13.40;1.00
18281;DHT22;9266;51.132;17.062;2023-03-14T14:09:00;13.40;1.00
18281;DHT22;9266;51.132;17.062;2023-03-14T14:11:46;13.30;1.00
18281;DHT22;9266;51.132;17.062;2023-03-14T14:14:18;13.30;1.00
18281;DHT22;9266;51.132;17.062;2023-03-14T14:16:47;13.20;1.00
18281;DHT22;9266;51.132;17.062;2023-03-14T14:19:16;13.10;1.00
18281;DHT22;9266;51.132;17.062;2023-03-14T14:21:44;13.10;1.00
18281;DHT22;9266;51.132;17.062;2023-03-14T14:24:13;13.10;1.00
18281;DHT22;9266;51.132;17.062;2023-03-14T14:26:41;13.00;1.00
18281;DHT22;9266;51.132;17.062;2023-03-14T14:29:24;13.10;1.00
18281;DHT22;9266;51.132;17.062;2023-03-14T14:32:03;13.10;1.00
18281;DHT22;9266;51.132;17.062;2023-03-14T14:34:39;13.10;1.00
18281;DHT22;9266;51.132;17.062;2023-03-14T14:37:18;13.10;1.00
18281;DHT22;9266;51.132;17.062;2023-03-14T14:39:46;14.50;1.00
18281;DHT22;9266;51.132;17.062;2023-03-14T14:42:14;12.90;1.00
18281;DHT22;9266;51.132;17.062;2023-03-14T14:44:43;12.80;1.00
18281;DHT22;9266;51.132;17.062;2023-03-14T14:47:13;12.80;1.00
18281;DHT22;9266;51.132;17.062;2023-03-14T14:49:42;12.90;1.00
18281;DHT22;9266;51.132;17.062;2023-03-14T14:52:13;12.90;1.00
18281;DHT22;9266;51.132;17.062;2023-03-14T14:54:44;12.90;1.00
18281;DHT22;9266;51.132;17.062;2023-03-14T14:57:18;12.90;1.00
18281;DHT22;9266;51.132;17.062;2023-03-14T14:59:48;13.00;1.00
18281;DHT22;9266;51.132;17.062;2023-03-14T15:02:35;13.10;1.00
18281;DHT22;9266;51.132;17.062;2023-03-14T15:05:12;13.10;1.00
18281;DHT22;9266;51.132;17.062;2023-03-14T15:07:39;13.20;1.00
18281;DHT22;9266;51.132;17.062;2023-03-14T15:10:09;13.30;1.00
18281;DHT22;9266;51.132;17.062;2023-03-14T15:12:36;13.40;1.00
18281;DHT22;9266;51.132;17.062;2023-03-14T15:15:04;13.60;1.00
18281;DHT22;9266;51.132;17.062;2023-03-14T15:17:32;13.70;1.00
18281;DHT22;9266;51.132;17.062;2023-03-14T15:19:59;13.90;1.00
18281;DHT22;9266;51.132;17.062;2023-03-14T15:22:27;14.00;1.00
18281;DHT22;9266;51.132;17.062;2023-03-14T15:24:54;14.00;1.00
18281;DHT22;9266;51.132;17.062;2023-03-14T15:27:21;14.10;1.00
18281;DHT22;9266;51.132;17.062;2023-03-14T15:29:49;14.10;1.00
18281;DHT22;9266;51.132;17.062;2023-03-14T15:32:16;14.20;1.00
18281;DHT22;9266;51.132;17.062;2023-03-14T15:34:44;14.30;1.00
18281;DHT22;9266;51.132;17.062;2023-03-14T15:37:12;14.40;1.00
18281;DHT22;9266;51.132;17.062;2023-03-14T15:39:42;14.40;1.00
18281;DHT22;9266;51.132;17.062;2023-03-14T15:42:10;14.40;1.00
18281;DHT22;9266;51.132;17.062;2023-03-14T15:44:37;14.30;1.00
18281;DHT22;9266;51.132;17.062;2023-03-14T15:47:05;14.00;1.00
18281;DHT22;9266;51.132;17.062;2023-03-14T15:49:32;13.90;1.00
18281;DHT22;9266;51.132;17.062;2023-03-14T15:52:00;15.30;1.00
18281;DHT22;9266;51.132;17.062;2023-03-14T15:54:27;13.70;1.00
18281;DHT22;9266;51.132;17.062;2023-03-14T15:56:56;13.60;1.00
18281;DHT22;9266;51.132;17.062;2023-03-14T15:59:24;13.60;1.00
18281;DHT22;9266;51.132;17.062;2023-03-14T16:01:51;13.60;1.00
18281;DHT22;9266;51.132;17.062;2023-03-14T16:04:18;13.50;1.00
18281;DHT22;9266;51.132;17.062;2023-03-14T16:06:45;13.50;1.00
18281;DHT22;9266;51.132;17.062;2023-03-14T16:09:13;13.50;1.00
18281;DHT22;9266;51.132;17.062;2023-03-14T16:11:40;13.60;1.00